sensor_id;sensor_type;location;lat;lon;timestamp;P1;durP1;ratioP1;P2;durP2;ratioP2
56820;SDS011;42702;50.178;20.992;2022-07-29T00:00:22;8.40;;;4.00;;
56820;SDS011;42702;50.178;20.992;2022-07-29T00:03:02;6.20;;;3.30;;
56820;SDS011;42702;50.178;20.992;2022-07-29T00:05:30;7.10;;;4.00;;
56820;SDS011;42702;50.178;20.992;2022-07-29T00:07:59;6.50;;;3.90;;
56820;SDS011;42702;50.178;20.992;2022-07-29T00:10:27;5.00;;;3.70;;
56820;SDS011;42702;50.178;20.992;2022-07-29T00:12:55;6.20;;;3.50;;
56820;SDS011;42702;50.178;20.992;2022-07-29T00:15:23;5.50;;;3.60;;
56820;SDS011;42702;50.178;20.992;2022-07-29T00:17:51;8.10;;;3.90;;
56820;SDS011;42702;50.178;20.992;2022-07-29T00:20:20;6.00;;;4.00;;
56820;SDS011;42702;50.178;20.992;2022-07-29T00:22:48;5.50;;;4.20;;
56820;SDS011;42702;50.178;20.992;2022-07-29T00:25:16;6.90;;;4.50;;
56820;SDS011;42702;50.178;20.992;2022-07-29T00:27:44;6.00;;;4.10;;
56820;SDS011;42702;50.178;20.992;2022-07-29T00:30:13;9.30;;;3.80;;
56820;SDS011;42702;50.178;20.992;2022-07-29T00:32:42;6.00;;;3.90;;
56820;SDS011;42702;50.178;20.992;2022-07-29T00:35:10;8.20;;;4.50;;
56820;SDS011;42702;50.178;20.992;2022-07-29T00:37:57;8.30;;;4.30;;
56820;SDS011;42702;50.178;20.992;2022-07-29T00:40:25;10.30;;;3.80;;
56820;SDS011;42702;50.178;20.992;2022-07-29T00:42:53;7.10;;;4.30;;
56820;SDS011;42702;50.178;20.992;2022-07-29T00:45:21;6.00;;;3.80;;
56820;SDS011;42702;50.178;20.992;2022-07-29T00:47:50;7.60;;;3.70;;
56820;SDS011;42702;50.178;20.992;2022-07-29T00:50:19;6.00;;;3.60;;
56820;SDS011;42702;50.178;20.992;2022-07-29T00:52:47;4.90;;;4.00;;
56820;SDS011;42702;50.178;20.992;2022-07-29T00:55:15;4.20;;;3.80;;
56820;SDS011;42702;50.178;20.992;2022-07-29T00:57:44;8.60;;;3.90;;
56820;SDS011;42702;50.178;20.992;2022-07-29T01:00:17;5.20;;;3.60;;
56820;SDS011;42702;50.178;20.992;2022-07-29T01:02:48;6.50;;;3.70;;
56820;SDS011;42702;50.178;20.992;2022-07-29T01:05:17;7.10;;;3.90;;
56820;SDS011;42702;50.178;20.992;2022-07-29T01:07:48;8.00;;;3.80;;
56820;SDS011;42702;50.178;20.992;2022-07-29T01:10:19;5.40;;;3.50;;
56820;SDS011;42702;50.178;20.992;2022-07-29T01:12:49;6.70;;;3.60;;
56820;SDS011;42702;50.178;20.992;2022-07-29T01:15:20;6.00;;;3.80;;
56820;SDS011;42702;50.178;20.992;2022-07-29T01:31:23;4.30;;;3.50;;
56820;SDS011;42702;50.178;20.992;2022-07-29T01:34:27;5.20;;;3.50;;
56820;SDS011;42702;50.178;20.992;2022-07-29T01:37:04;8.70;;;3.60;;
56820;SDS011;42702;50.178;20.992;2022-07-29T01:39:47;4.70;;;3.70;;
56820;SDS011;42702;50.178;20.992;2022-07-29T01:47:54;8.50;;;3.90;;
56820;SDS011;42702;50.178;20.992;2022-07-29T01:50:46;6.60;;;3.60;;
56820;SDS011;42702;50.178;20.992;2022-07-29T01:53:29;5.70;;;3.50;;
56820;SDS011;42702;50.178;20.992;2022-07-29T01:56:04;8.70;;;3.90;;
56820;SDS011;42702;50.178;20.992;2022-07-29T01:58:36;7.90;;;3.20;;
56820;SDS011;42702;50.178;20.992;2022-07-29T02:01:08;5.70;;;3.50;;
56820;SDS011;42702;50.178;20.992;2022-07-29T02:03:39;6.80;;;3.80;;
56820;SDS011;42702;50.178;20.992;2022-07-29T02:06:11;7.00;;;3.70;;
56820;SDS011;42702;50.178;20.992;2022-07-29T02:08:44;5.70;;;3.50;;
56820;SDS011;42702;50.178;20.992;2022-07-29T02:11:15;4.80;;;3.50;;
56820;SDS011;42702;50.178;20.992;2022-07-29T02:13:44;7.40;;;3.40;;
56820;SDS011;42702;50.178;20.992;2022-07-29T02:16:14;5.20;;;3.30;;
56820;SDS011;42702;50.178;20.992;2022-07-29T02:18:47;6.50;;;3.20;;
56820;SDS011;42702;50.178;20.992;2022-07-29T02:21:19;4.70;;;3.20;;
56820;SDS011;42702;50.178;20.992;2022-07-29T02:23:52;6.50;;;3.60;;
56820;SDS011;42702;50.178;20.992;2022-07-29T02:26:21;6.10;;;3.30;;
56820;SDS011;42702;50.178;20.992;2022-07-29T02:28:54;7.40;;;3.70;;
56820;SDS011;42702;50.178;20.992;2022-07-29T02:31:26;8.80;;;3.50;;
56820;SDS011;42702;50.178;20.992;2022-07-29T02:33:58;5.50;;;3.60;;
56820;SDS011;42702;50.178;20.992;2022-07-29T02:36:27;5.40;;;3.10;;
56820;SDS011;42702;50.178;20.992;2022-07-29T02:38:59;4.50;;;3.00;;
56820;SDS011;42702;50.178;20.992;2022-07-29T02:41:38;5.20;;;3.50;;
56820;SDS011;42702;50.178;20.992;2022-07-29T02:49:57;5.20;;;3.20;;
56820;SDS011;42702;50.178;20.992;2022-07-29T02:52:41;6.90;;;3.20;;
56820;SDS011;42702;50.178;20.992;2022-07-29T02:58:02;4.40;;;2.90;;
56820;SDS011;42702;50.178;20.992;2022-07-29T03:00:41;4.50;;;2.80;;
56820;SDS011;42702;50.178;20.992;2022-07-29T03:03:13;5.70;;;3.20;;
56820;SDS011;42702;50.178;20.992;2022-07-29T03:05:44;6.20;;;3.00;;
56820;SDS011;42702;50.178;20.992;2022-07-29T03:08:13;5.10;;;3.00;;
56820;SDS011;42702;50.178;20.992;2022-07-29T03:10:43;5.20;;;3.60;;
56820;SDS011;42702;50.178;20.992;2022-07-29T03:13:14;8.10;;;3.00;;
56820;SDS011;42702;50.178;20.992;2022-07-29T03:15:44;7.70;;;3.30;;
56820;SDS011;42702;50.178;20.992;2022-07-29T03:18:13;4.10;;;3.10;;
56820;SDS011;42702;50.178;20.992;2022-07-29T03:20:42;5.10;;;3.10;;
56820;SDS011;42702;50.178;20.992;2022-07-29T03:23:11;3.40;;;2.60;;
56820;SDS011;42702;50.178;20.992;2022-07-29T03:25:39;4.10;;;2.90;;
56820;SDS011;42702;50.178;20.992;2022-07-29T03:28:08;5.70;;;3.00;;
56820;SDS011;42702;50.178;20.992;2022-07-29T03:30:36;4.70;;;2.80;;
56820;SDS011;42702;50.178;20.992;2022-07-29T03:33:05;4.30;;;2.80;;
56820;SDS011;42702;50.178;20.992;2022-07-29T03:35:40;5.80;;;3.20;;
56820;SDS011;42702;50.178;20.992;2022-07-29T03:38:09;4.00;;;2.80;;
56820;SDS011;42702;50.178;20.992;2022-07-29T03:40:40;3.40;;;2.70;;
56820;SDS011;42702;50.178;20.992;2022-07-29T03:43:14;4.60;;;2.90;;
56820;SDS011;42702;50.178;20.992;2022-07-29T03:45:45;8.30;;;3.00;;
56820;SDS011;42702;50.178;20.992;2022-07-29T03:50:47;4.10;;;3.00;;
56820;SDS011;42702;50.178;20.992;2022-07-29T03:53:18;5.70;;;3.30;;
56820;SDS011;42702;50.178;20.992;2022-07-29T03:55:50;4.00;;;3.20;;
56820;SDS011;42702;50.178;20.992;2022-07-29T03:58:23;5.50;;;3.10;;
56820;SDS011;42702;50.178;20.992;2022-07-29T04:00:54;6.50;;;3.10;;
56820;SDS011;42702;50.178;20.992;2022-07-29T04:03:23;3.90;;;2.80;;
56820;SDS011;42702;50.178;20.992;2022-07-29T04:06:01;6.50;;;3.20;;
56820;SDS011;42702;50.178;20.992;2022-07-29T04:08:34;6.80;;;3.00;;
56820;SDS011;42702;50.178;20.992;2022-07-29T04:11:02;3.20;;;2.60;;
56820;SDS011;42702;50.178;20.992;2022-07-29T04:13:31;4.20;;;2.70;;
56820;SDS011;42702;50.178;20.992;2022-07-29T04:16:00;5.30;;;3.20;;
56820;SDS011;42702;50.178;20.992;2022-07-29T04:18:29;5.10;;;3.00;;
56820;SDS011;42702;50.178;20.992;2022-07-29T04:20:57;4.50;;;3.20;;
56820;SDS011;42702;50.178;20.992;2022-07-29T04:23:29;4.10;;;3.00;;
56820;SDS011;42702;50.178;20.992;2022-07-29T04:26:01;5.00;;;3.20;;
56820;SDS011;42702;50.178;20.992;2022-07-29T04:28:29;7.00;;;2.90;;
56820;SDS011;42702;50.178;20.992;2022-07-29T04:30:57;6.00;;;4.30;;
56820;SDS011;42702;50.178;20.992;2022-07-29T04:33:25;6.20;;;3.10;;
56820;SDS011;42702;50.178;20.992;2022-07-29T04:35:54;4.60;;;3.00;;
56820;SDS011;42702;50.178;20.992;2022-07-29T04:38:22;5.40;;;2.90;;
56820;SDS011;42702;50.178;20.992;2022-07-29T04:40:50;4.30;;;2.90;;
56820;SDS011;42702;50.178;20.992;2022-07-29T04:43:18;5.40;;;2.80;;
56820;SDS011;42702;50.178;20.992;2022-07-29T04:45:49;5.40;;;2.90;;
56820;SDS011;42702;50.178;20.992;2022-07-29T04:48:18;4.70;;;2.80;;
56820;SDS011;42702;50.178;20.992;2022-07-29T04:50:53;4.90;;;2.80;;
56820;SDS011;42702;50.178;20.992;2022-07-29T04:53:21;4.30;;;3.20;;
56820;SDS011;42702;50.178;20.992;2022-07-29T04:55:49;5.30;;;3.00;;
56820;SDS011;42702;50.178;20.992;2022-07-29T04:58:17;3.80;;;2.50;;
56820;SDS011;42702;50.178;20.992;2022-07-29T05:00:46;4.50;;;2.60;;
56820;SDS011;42702;50.178;20.992;2022-07-29T05:03:14;4.70;;;3.10;;
56820;SDS011;42702;50.178;20.992;2022-07-29T05:05:42;6.10;;;2.50;;
56820;SDS011;42702;50.178;20.992;2022-07-29T05:08:10;5.00;;;2.80;;
56820;SDS011;42702;50.178;20.992;2022-07-29T05:10:38;8.20;;;3.30;;
56820;SDS011;42702;50.178;20.992;2022-07-29T05:13:07;4.80;;;2.90;;
56820;SDS011;42702;50.178;20.992;2022-07-29T05:15:36;7.50;;;2.90;;
56820;SDS011;42702;50.178;20.992;2022-07-29T05:18:04;5.10;;;3.20;;
56820;SDS011;42702;50.178;20.992;2022-07-29T05:20:33;5.90;;;3.10;;
56820;SDS011;42702;50.178;20.992;2022-07-29T05:23:02;4.00;;;2.70;;
56820;SDS011;42702;50.178;20.992;2022-07-29T05:25:30;5.10;;;2.90;;
56820;SDS011;42702;50.178;20.992;2022-07-29T05:28:11;5.30;;;2.60;;
56820;SDS011;42702;50.178;20.992;2022-07-29T05:30:39;6.00;;;3.00;;
56820;SDS011;42702;50.178;20.992;2022-07-29T05:33:07;5.00;;;2.90;;
56820;SDS011;42702;50.178;20.992;2022-07-29T05:38:28;5.30;;;3.10;;
56820;SDS011;42702;50.178;20.992;2022-07-29T05:40:57;3.20;;;2.50;;
56820;SDS011;42702;50.178;20.992;2022-07-29T05:43:27;6.10;;;2.60;;
56820;SDS011;42702;50.178;20.992;2022-07-29T05:45:56;3.70;;;2.10;;
56820;SDS011;42702;50.178;20.992;2022-07-29T05:48:25;5.90;;;2.70;;
56820;SDS011;42702;50.178;20.992;2022-07-29T05:50:53;3.40;;;2.50;;
56820;SDS011;42702;50.178;20.992;2022-07-29T05:53:22;3.40;;;2.70;;
56820;SDS011;42702;50.178;20.992;2022-07-29T05:55:51;3.80;;;3.10;;
56820;SDS011;42702;50.178;20.992;2022-07-29T05:58:20;5.20;;;2.20;;
56820;SDS011;42702;50.178;20.992;2022-07-29T06:00:48;4.20;;;2.60;;
56820;SDS011;42702;50.178;20.992;2022-07-29T06:03:16;2.80;;;2.50;;
56820;SDS011;42702;50.178;20.992;2022-07-29T06:05:44;3.50;;;2.20;;
56820;SDS011;42702;50.178;20.992;2022-07-29T06:08:13;4.00;;;2.60;;
56820;SDS011;42702;50.178;20.992;2022-07-29T06:10:41;5.00;;;2.60;;
56820;SDS011;42702;50.178;20.992;2022-07-29T06:13:09;4.10;;;2.40;;
56820;SDS011;42702;50.178;20.992;2022-07-29T06:15:37;4.00;;;2.30;;
56820;SDS011;42702;50.178;20.992;2022-07-29T06:18:06;3.20;;;2.30;;
56820;SDS011;42702;50.178;20.992;2022-07-29T06:20:37;7.30;;;3.00;;
56820;SDS011;42702;50.178;20.992;2022-07-29T06:23:05;3.30;;;2.20;;
56820;SDS011;42702;50.178;20.992;2022-07-29T06:25:34;5.40;;;2.10;;
56820;SDS011;42702;50.178;20.992;2022-07-29T06:28:05;3.30;;;2.00;;
56820;SDS011;42702;50.178;20.992;2022-07-29T06:30:34;2.70;;;2.00;;
56820;SDS011;42702;50.178;20.992;2022-07-29T06:33:02;4.20;;;2.20;;
56820;SDS011;42702;50.178;20.992;2022-07-29T06:35:34;5.70;;;2.20;;
56820;SDS011;42702;50.178;20.992;2022-07-29T06:38:09;6.80;;;2.30;;
56820;SDS011;42702;50.178;20.992;2022-07-29T06:40:58;3.40;;;1.80;;
56820;SDS011;42702;50.178;20.992;2022-07-29T06:43:36;3.20;;;1.70;;
56820;SDS011;42702;50.178;20.992;2022-07-29T06:46:22;3.80;;;2.10;;
56820;SDS011;42702;50.178;20.992;2022-07-29T06:48:50;2.60;;;2.10;;
56820;SDS011;42702;50.178;20.992;2022-07-29T06:51:20;2.60;;;1.80;;
56820;SDS011;42702;50.178;20.992;2022-07-29T06:53:51;2.00;;;1.80;;
56820;SDS011;42702;50.178;20.992;2022-07-29T06:56:30;5.30;;;2.00;;
56820;SDS011;42702;50.178;20.992;2022-07-29T06:59:09;3.60;;;1.80;;
56820;SDS011;42702;50.178;20.992;2022-07-29T07:01:39;3.40;;;1.70;;
56820;SDS011;42702;50.178;20.992;2022-07-29T07:04:10;3.60;;;1.80;;
56820;SDS011;42702;50.178;20.992;2022-07-29T07:06:38;2.30;;;1.80;;
56820;SDS011;42702;50.178;20.992;2022-07-29T07:09:07;2.10;;;1.60;;
56820;SDS011;42702;50.178;20.992;2022-07-29T07:11:35;2.90;;;1.70;;
56820;SDS011;42702;50.178;20.992;2022-07-29T07:14:03;4.10;;;1.80;;
56820;SDS011;42702;50.178;20.992;2022-07-29T07:16:32;2.50;;;1.60;;
56820;SDS011;42702;50.178;20.992;2022-07-29T07:19:00;1.70;;;1.60;;
56820;SDS011;42702;50.178;20.992;2022-07-29T07:21:28;4.90;;;1.80;;
56820;SDS011;42702;50.178;20.992;2022-07-29T07:23:58;3.80;;;1.50;;
56820;SDS011;42702;50.178;20.992;2022-07-29T07:26:27;4.90;;;1.70;;
56820;SDS011;42702;50.178;20.992;2022-07-29T07:28:56;2.80;;;1.70;;
56820;SDS011;42702;50.178;20.992;2022-07-29T07:31:24;4.20;;;1.70;;
56820;SDS011;42702;50.178;20.992;2022-07-29T07:33:52;3.60;;;1.90;;
56820;SDS011;42702;50.178;20.992;2022-07-29T07:36:21;4.00;;;1.50;;
56820;SDS011;42702;50.178;20.992;2022-07-29T07:38:50;2.60;;;1.80;;
56820;SDS011;42702;50.178;20.992;2022-07-29T07:41:18;3.10;;;1.50;;
56820;SDS011;42702;50.178;20.992;2022-07-29T07:43:47;3.10;;;1.70;;
56820;SDS011;42702;50.178;20.992;2022-07-29T07:46:16;4.40;;;2.00;;
56820;SDS011;42702;50.178;20.992;2022-07-29T07:48:44;3.10;;;1.90;;
56820;SDS011;42702;50.178;20.992;2022-07-29T07:51:12;5.10;;;1.80;;
56820;SDS011;42702;50.178;20.992;2022-07-29T07:53:41;2.70;;;1.80;;
56820;SDS011;42702;50.178;20.992;2022-07-29T07:56:09;4.80;;;2.00;;
56820;SDS011;42702;50.178;20.992;2022-07-29T07:58:39;2.70;;;1.80;;
56820;SDS011;42702;50.178;20.992;2022-07-29T08:01:08;3.70;;;2.10;;
56820;SDS011;42702;50.178;20.992;2022-07-29T08:03:37;3.10;;;2.00;;
56820;SDS011;42702;50.178;20.992;2022-07-29T08:06:06;2.60;;;2.00;;
56820;SDS011;42702;50.178;20.992;2022-07-29T08:08:34;3.60;;;1.90;;
56820;SDS011;42702;50.178;20.992;2022-07-29T08:11:03;4.90;;;2.00;;
56820;SDS011;42702;50.178;20.992;2022-07-29T08:13:36;2.40;;;1.80;;
56820;SDS011;42702;50.178;20.992;2022-07-29T08:16:06;3.10;;;2.10;;
56820;SDS011;42702;50.178;20.992;2022-07-29T08:18:41;3.70;;;2.20;;
56820;SDS011;42702;50.178;20.992;2022-07-29T08:21:11;5.60;;;2.00;;
56820;SDS011;42702;50.178;20.992;2022-07-29T08:23:42;1.80;;;1.70;;
56820;SDS011;42702;50.178;20.992;2022-07-29T08:26:27;3.50;;;2.10;;
56820;SDS011;42702;50.178;20.992;2022-07-29T08:28:55;2.70;;;2.20;;
56820;SDS011;42702;50.178;20.992;2022-07-29T08:31:23;3.20;;;1.90;;
56820;SDS011;42702;50.178;20.992;2022-07-29T08:33:52;5.50;;;2.30;;
56820;SDS011;42702;50.178;20.992;2022-07-29T08:36:20;5.40;;;2.00;;
56820;SDS011;42702;50.178;20.992;2022-07-29T08:38:48;3.10;;;2.00;;
56820;SDS011;42702;50.178;20.992;2022-07-29T08:41:20;4.00;;;2.00;;
56820;SDS011;42702;50.178;20.992;2022-07-29T08:43:49;6.80;;;2.10;;
56820;SDS011;42702;50.178;20.992;2022-07-29T08:46:18;3.30;;;2.20;;
56820;SDS011;42702;50.178;20.992;2022-07-29T08:48:48;2.50;;;2.10;;
56820;SDS011;42702;50.178;20.992;2022-07-29T08:51:17;2.90;;;2.30;;
56820;SDS011;42702;50.178;20.992;2022-07-29T08:53:48;2.60;;;2.20;;
56820;SDS011;42702;50.178;20.992;2022-07-29T08:56:18;3.40;;;2.70;;
56820;SDS011;42702;50.178;20.992;2022-07-29T08:58:47;5.40;;;2.20;;
56820;SDS011;42702;50.178;20.992;2022-07-29T09:01:22;3.90;;;2.70;;
56820;SDS011;42702;50.178;20.992;2022-07-29T09:04:10;3.40;;;2.40;;
56820;SDS011;42702;50.178;20.992;2022-07-29T09:06:43;3.70;;;2.00;;
56820;SDS011;42702;50.178;20.992;2022-07-29T09:09:13;3.00;;;2.00;;
56820;SDS011;42702;50.178;20.992;2022-07-29T09:11:42;3.30;;;2.40;;
56820;SDS011;42702;50.178;20.992;2022-07-29T09:14:12;5.00;;;2.30;;
56820;SDS011;42702;50.178;20.992;2022-07-29T09:16:44;3.10;;;2.10;;
56820;SDS011;42702;50.178;20.992;2022-07-29T09:19:24;2.50;;;2.20;;
56820;SDS011;42702;50.178;20.992;2022-07-29T09:21:55;3.90;;;2.20;;
56820;SDS011;42702;50.178;20.992;2022-07-29T09:24:26;2.60;;;2.10;;
56820;SDS011;42702;50.178;20.992;2022-07-29T09:27:12;4.20;;;2.00;;
56820;SDS011;42702;50.178;20.992;2022-07-29T09:29:58;4.50;;;2.40;;
56820;SDS011;42702;50.178;20.992;2022-07-29T09:32:27;2.40;;;2.10;;
56820;SDS011;42702;50.178;20.992;2022-07-29T09:35:16;3.60;;;2.10;;
56820;SDS011;42702;50.178;20.992;2022-07-29T09:37:49;2.90;;;1.90;;
56820;SDS011;42702;50.178;20.992;2022-07-29T09:40:27;6.10;;;2.20;;
56820;SDS011;42702;50.178;20.992;2022-07-29T09:42:56;2.50;;;2.20;;
56820;SDS011;42702;50.178;20.992;2022-07-29T09:45:33;3.00;;;2.10;;
56820;SDS011;42702;50.178;20.992;2022-07-29T09:48:15;4.40;;;2.30;;
56820;SDS011;42702;50.178;20.992;2022-07-29T09:56:07;2.70;;;2.00;;
56820;SDS011;42702;50.178;20.992;2022-07-29T09:58:36;7.50;;;2.60;;
56820;SDS011;42702;50.178;20.992;2022-07-29T10:01:04;2.60;;;2.10;;
56820;SDS011;42702;50.178;20.992;2022-07-29T10:03:32;3.20;;;2.20;;
56820;SDS011;42702;50.178;20.992;2022-07-29T10:06:18;4.40;;;2.10;;
56820;SDS011;42702;50.178;20.992;2022-07-29T10:08:47;3.50;;;2.20;;
56820;SDS011;42702;50.178;20.992;2022-07-29T10:11:17;3.50;;;2.40;;
56820;SDS011;42702;50.178;20.992;2022-07-29T10:13:47;5.30;;;2.40;;
56820;SDS011;42702;50.178;20.992;2022-07-29T10:16:16;4.00;;;2.30;;
56820;SDS011;42702;50.178;20.992;2022-07-29T10:18:44;2.70;;;2.40;;
56820;SDS011;42702;50.178;20.992;2022-07-29T10:21:14;2.90;;;2.30;;
56820;SDS011;42702;50.178;20.992;2022-07-29T10:24:03;3.60;;;2.30;;
56820;SDS011;42702;50.178;20.992;2022-07-29T10:26:32;4.10;;;2.50;;
56820;SDS011;42702;50.178;20.992;2022-07-29T10:29:01;3.50;;;2.10;;
56820;SDS011;42702;50.178;20.992;2022-07-29T10:31:34;3.90;;;2.40;;
56820;SDS011;42702;50.178;20.992;2022-07-29T10:37:31;2.80;;;2.20;;
56820;SDS011;42702;50.178;20.992;2022-07-29T10:40:17;4.00;;;2.40;;
56820;SDS011;42702;50.178;20.992;2022-07-29T10:43:24;3.60;;;2.40;;
56820;SDS011;42702;50.178;20.992;2022-07-29T10:45:59;3.00;;;2.50;;
56820;SDS011;42702;50.178;20.992;2022-07-29T10:48:28;4.70;;;2.60;;
56820;SDS011;42702;50.178;20.992;2022-07-29T10:51:00;5.60;;;2.10;;
56820;SDS011;42702;50.178;20.992;2022-07-29T10:53:46;2.50;;;2.30;;
56820;SDS011;42702;50.178;20.992;2022-07-29T11:01:49;6.10;;;2.70;;
56820;SDS011;42702;50.178;20.992;2022-07-29T11:07:11;3.20;;;2.70;;
56820;SDS011;42702;50.178;20.992;2022-07-29T11:09:41;3.50;;;2.50;;
56820;SDS011;42702;50.178;20.992;2022-07-29T11:15:06;3.20;;;2.20;;
56820;SDS011;42702;50.178;20.992;2022-07-29T11:44:59;4.40;;;2.80;;
56820;SDS011;42702;50.178;20.992;2022-07-29T11:47:51;3.00;;;2.60;;
56820;SDS011;42702;50.178;20.992;2022-07-29T11:53:02;3.70;;;2.70;;
56820;SDS011;42702;50.178;20.992;2022-07-29T11:55:39;3.30;;;3.00;;
56820;SDS011;42702;50.178;20.992;2022-07-29T11:58:28;5.00;;;2.50;;
56820;SDS011;42702;50.178;20.992;2022-07-29T12:00:57;4.70;;;3.00;;
56820;SDS011;42702;50.178;20.992;2022-07-29T12:03:45;4.40;;;2.60;;
56820;SDS011;42702;50.178;20.992;2022-07-29T12:06:14;3.30;;;2.70;;
56820;SDS011;42702;50.178;20.992;2022-07-29T12:08:44;7.30;;;2.70;;
56820;SDS011;42702;50.178;20.992;2022-07-29T12:11:17;6.00;;;2.90;;
56820;SDS011;42702;50.178;20.992;2022-07-29T12:13:50;4.00;;;2.90;;
56820;SDS011;42702;50.178;20.992;2022-07-29T12:16:22;3.50;;;2.50;;
56820;SDS011;42702;50.178;20.992;2022-07-29T12:18:56;3.90;;;2.70;;
56820;SDS011;42702;50.178;20.992;2022-07-29T12:21:26;3.20;;;2.70;;
56820;SDS011;42702;50.178;20.992;2022-07-29T12:23:56;3.50;;;2.80;;
56820;SDS011;42702;50.178;20.992;2022-07-29T12:26:36;3.20;;;2.90;;
56820;SDS011;42702;50.178;20.992;2022-07-29T12:29:16;3.60;;;2.80;;
56820;SDS011;42702;50.178;20.992;2022-07-29T12:32:00;4.50;;;2.70;;
56820;SDS011;42702;50.178;20.992;2022-07-29T12:34:28;3.70;;;2.60;;
56820;SDS011;42702;50.178;20.992;2022-07-29T12:36:57;3.40;;;2.60;;
56820;SDS011;42702;50.178;20.992;2022-07-29T12:39:25;4.40;;;2.80;;
56820;SDS011;42702;50.178;20.992;2022-07-29T12:41:55;3.70;;;2.90;;
56820;SDS011;42702;50.178;20.992;2022-07-29T12:44:46;2.80;;;2.30;;
56820;SDS011;42702;50.178;20.992;2022-07-29T12:47:16;3.20;;;2.90;;
56820;SDS011;42702;50.178;20.992;2022-07-29T12:49:46;4.50;;;2.80;;
56820;SDS011;42702;50.178;20.992;2022-07-29T12:52:32;6.80;;;3.30;;
56820;SDS011;42702;50.178;20.992;2022-07-29T12:55:02;3.40;;;3.00;;
56820;SDS011;42702;50.178;20.992;2022-07-29T12:57:31;3.20;;;2.90;;
56820;SDS011;42702;50.178;20.992;2022-07-29T13:00:13;4.00;;;3.00;;
56820;SDS011;42702;50.178;20.992;2022-07-29T13:02:43;3.00;;;2.70;;
56820;SDS011;42702;50.178;20.992;2022-07-29T13:05:11;3.30;;;2.70;;
56820;SDS011;42702;50.178;20.992;2022-07-29T13:07:40;3.00;;;2.80;;
56820;SDS011;42702;50.178;20.992;2022-07-29T13:10:23;4.20;;;2.60;;
56820;SDS011;42702;50.178;20.992;2022-07-29T13:13:02;4.00;;;2.80;;
56820;SDS011;42702;50.178;20.992;2022-07-29T13:15:37;5.90;;;2.40;;
56820;SDS011;42702;50.178;20.992;2022-07-29T13:18:29;3.50;;;2.90;;
56820;SDS011;42702;50.178;20.992;2022-07-29T13:21:11;4.50;;;2.80;;
56820;SDS011;42702;50.178;20.992;2022-07-29T13:23:43;3.30;;;2.80;;
56820;SDS011;42702;50.178;20.992;2022-07-29T13:26:11;4.30;;;2.80;;
56820;SDS011;42702;50.178;20.992;2022-07-29T13:28:39;5.80;;;2.90;;
56820;SDS011;42702;50.178;20.992;2022-07-29T13:31:10;4.00;;;2.90;;
56820;SDS011;42702;50.178;20.992;2022-07-29T13:33:39;3.00;;;2.60;;
56820;SDS011;42702;50.178;20.992;2022-07-29T13:36:07;5.00;;;3.10;;
56820;SDS011;42702;50.178;20.992;2022-07-29T13:38:35;3.60;;;3.10;;
56820;SDS011;42702;50.178;20.992;2022-07-29T13:41:03;5.20;;;2.80;;
56820;SDS011;42702;50.178;20.992;2022-07-29T13:43:32;4.50;;;2.90;;
56820;SDS011;42702;50.178;20.992;2022-07-29T13:46:00;3.90;;;2.60;;
56820;SDS011;42702;50.178;20.992;2022-07-29T13:48:28;5.30;;;2.80;;
56820;SDS011;42702;50.178;20.992;2022-07-29T13:50:56;3.30;;;3.10;;
56820;SDS011;42702;50.178;20.992;2022-07-29T13:53:24;8.50;;;2.90;;
56820;SDS011;42702;50.178;20.992;2022-07-29T13:55:54;3.30;;;3.00;;
56820;SDS011;42702;50.178;20.992;2022-07-29T13:58:22;3.80;;;2.70;;
56820;SDS011;42702;50.178;20.992;2022-07-29T14:00:51;4.90;;;3.00;;
56820;SDS011;42702;50.178;20.992;2022-07-29T14:03:19;4.20;;;2.70;;
56820;SDS011;42702;50.178;20.992;2022-07-29T14:05:47;6.90;;;3.40;;
56820;SDS011;42702;50.178;20.992;2022-07-29T14:08:15;3.50;;;2.60;;
56820;SDS011;42702;50.178;20.992;2022-07-29T14:10:44;4.70;;;3.90;;
56820;SDS011;42702;50.178;20.992;2022-07-29T14:13:12;5.60;;;3.10;;
56820;SDS011;42702;50.178;20.992;2022-07-29T14:15:52;5.30;;;3.40;;
56820;SDS011;42702;50.178;20.992;2022-07-29T14:18:21;3.70;;;3.00;;
56820;SDS011;42702;50.178;20.992;2022-07-29T14:20:49;4.00;;;3.10;;
56820;SDS011;42702;50.178;20.992;2022-07-29T14:23:18;5.10;;;3.10;;
56820;SDS011;42702;50.178;20.992;2022-07-29T14:25:47;6.70;;;2.90;;
56820;SDS011;42702;50.178;20.992;2022-07-29T14:28:16;4.10;;;3.10;;
56820;SDS011;42702;50.178;20.992;2022-07-29T14:30:44;3.10;;;2.80;;
56820;SDS011;42702;50.178;20.992;2022-07-29T14:33:12;3.70;;;2.80;;
56820;SDS011;42702;50.178;20.992;2022-07-29T14:35:41;5.30;;;3.30;;
56820;SDS011;42702;50.178;20.992;2022-07-29T14:38:09;6.00;;;3.20;;
56820;SDS011;42702;50.178;20.992;2022-07-29T14:40:37;4.00;;;3.10;;
56820;SDS011;42702;50.178;20.992;2022-07-29T14:43:05;5.70;;;3.00;;
56820;SDS011;42702;50.178;20.992;2022-07-29T14:45:34;3.30;;;3.00;;
56820;SDS011;42702;50.178;20.992;2022-07-29T14:48:02;4.60;;;3.30;;
56820;SDS011;42702;50.178;20.992;2022-07-29T14:50:30;4.60;;;3.00;;
56820;SDS011;42702;50.178;20.992;2022-07-29T14:52:59;4.30;;;3.00;;
56820;SDS011;42702;50.178;20.992;2022-07-29T14:55:28;5.70;;;3.00;;
56820;SDS011;42702;50.178;20.992;2022-07-29T14:57:57;3.50;;;3.20;;
56820;SDS011;42702;50.178;20.992;2022-07-29T15:00:37;5.70;;;3.50;;
56820;SDS011;42702;50.178;20.992;2022-07-29T15:03:05;7.00;;;3.80;;
56820;SDS011;42702;50.178;20.992;2022-07-29T15:05:38;5.60;;;3.50;;
56820;SDS011;42702;50.178;20.992;2022-07-29T15:08:06;4.80;;;3.50;;
56820;SDS011;42702;50.178;20.992;2022-07-29T15:10:35;4.00;;;3.60;;
56820;SDS011;42702;50.178;20.992;2022-07-29T15:13:04;5.90;;;3.50;;
56820;SDS011;42702;50.178;20.992;2022-07-29T15:15:32;4.80;;;3.20;;
56820;SDS011;42702;50.178;20.992;2022-07-29T15:18:00;3.70;;;3.40;;
56820;SDS011;42702;50.178;20.992;2022-07-29T15:20:28;3.40;;;3.10;;
56820;SDS011;42702;50.178;20.992;2022-07-29T15:22:57;3.60;;;3.20;;
56820;SDS011;42702;50.178;20.992;2022-07-29T15:25:25;5.20;;;3.90;;
56820;SDS011;42702;50.178;20.992;2022-07-29T15:27:55;4.20;;;3.40;;
56820;SDS011;42702;50.178;20.992;2022-07-29T15:30:29;3.90;;;3.50;;
56820;SDS011;42702;50.178;20.992;2022-07-29T15:33:02;5.00;;;3.20;;
56820;SDS011;42702;50.178;20.992;2022-07-29T15:35:32;5.00;;;3.60;;
56820;SDS011;42702;50.178;20.992;2022-07-29T15:38:07;4.60;;;3.70;;
56820;SDS011;42702;50.178;20.992;2022-07-29T15:40:38;3.80;;;3.40;;
56820;SDS011;42702;50.178;20.992;2022-07-29T15:43:11;6.20;;;3.50;;
56820;SDS011;42702;50.178;20.992;2022-07-29T15:45:41;7.90;;;3.30;;
56820;SDS011;42702;50.178;20.992;2022-07-29T15:51:09;4.80;;;3.50;;
56820;SDS011;42702;50.178;20.992;2022-07-29T15:53:37;4.60;;;3.50;;
56820;SDS011;42702;50.178;20.992;2022-07-29T15:56:05;4.10;;;3.30;;
56820;SDS011;42702;50.178;20.992;2022-07-29T15:58:34;3.60;;;3.20;;
56820;SDS011;42702;50.178;20.992;2022-07-29T16:01:02;3.90;;;3.20;;
56820;SDS011;42702;50.178;20.992;2022-07-29T16:03:30;9.60;;;3.50;;
56820;SDS011;42702;50.178;20.992;2022-07-29T16:06:00;4.40;;;3.60;;
56820;SDS011;42702;50.178;20.992;2022-07-29T16:08:28;6.90;;;4.20;;
56820;SDS011;42702;50.178;20.992;2022-07-29T16:10:57;6.70;;;4.00;;
56820;SDS011;42702;50.178;20.992;2022-07-29T16:13:25;6.30;;;4.00;;
56820;SDS011;42702;50.178;20.992;2022-07-29T16:15:56;5.00;;;3.60;;
56820;SDS011;42702;50.178;20.992;2022-07-29T16:18:29;6.40;;;3.90;;
56820;SDS011;42702;50.178;20.992;2022-07-29T16:20:58;3.80;;;3.30;;
56820;SDS011;42702;50.178;20.992;2022-07-29T16:23:26;4.00;;;3.40;;